sensor_id;sensor_type;location;lat;lon;timestamp;pressure;altitude;pressure_sealevel;temperature;humidity
54407;BME280;40313;50.308;30.374;2023-12-28T00:00:40;100078.66;;;4.14;100.00
54407;BME280;40313;50.308;30.374;2023-12-28T00:03:06;100078.53;;;4.20;100.00
54407;BME280;40313;50.308;30.374;2023-12-28T00:05:33;100075.78;;;4.26;100.00
54407;BME280;40313;50.308;30.374;2023-12-28T00:08:00;100063.34;;;4.42;100.00
54407;BME280;40313;50.308;30.374;2023-12-28T00:10:27;100066.56;;;4.52;100.00
54407;BME280;40313;50.308;30.374;2023-12-28T00:12:55;100076.91;;;4.52;100.00
54407;BME280;40313;50.308;30.374;2023-12-28T00:15:22;100068.81;;;4.66;100.00
54407;BME280;40313;50.308;30.374;2023-12-28T00:17:48;100083.31;;;3.98;100.00
54407;BME280;40313;50.308;30.374;2023-12-28T00:20:15;100080.53;;;4.45;100.00
54407;BME280;40313;50.308;30.374;2023-12-28T00:22:42;100096.16;;;4.75;100.00
54407;BME280;40313;50.308;30.374;2023-12-28T00:25:08;100083.75;;;4.89;100.00
54407;BME280;40313;50.308;30.374;2023-12-28T00:27:35;100093.94;;;4.59;100.00
54407;BME280;40313;50.308;30.374;2023-12-28T00:30:05;100103.75;;;4.81;100.00
54407;BME280;40313;50.308;30.374;2023-12-28T00:32:32;100091.78;;;4.77;100.00
54407;BME280;40313;50.308;30.374;2023-12-28T00:34:58;100085.78;;;4.76;100.00
54407;BME280;40313;50.308;30.374;2023-12-28T00:37:25;100093.13;;;4.57;100.00
54407;BME280;40313;50.308;30.374;2023-12-28T00:39:51;100086.03;;;4.65;100.00
54407;BME280;40313;50.308;30.374;2023-12-28T00:42:18;100086.53;;;4.80;100.00
54407;BME280;40313;50.308;30.374;2023-12-28T00:44:45;100089.22;;;4.77;100.00
54407;BME280;40313;50.308;30.374;2023-12-28T00:47:13;100097.84;;;4.77;100.00
54407;BME280;40313;50.308;30.374;2023-12-28T00:49:39;100092.22;;;4.94;100.00
54407;BME280;40313;50.308;30.374;2023-12-28T00:52:06;100103.13;;;4.71;100.00
54407;BME280;40313;50.308;30.374;2023-12-28T00:54:33;100108.16;;;4.77;100.00
54407;BME280;40313;50.308;30.374;2023-12-28T00:56:59;100113.97;;;4.85;100.00
54407;BME280;40313;50.308;30.374;2023-12-28T00:59:26;100121.03;;;4.43;100.00
54407;BME280;40313;50.308;30.374;2023-12-28T01:01:52;100112.34;;;4.83;100.00
54407;BME280;40313;50.308;30.374;2023-12-28T01:04:20;100101.41;;;4.72;100.00
54407;BME280;40313;50.308;30.374;2023-12-28T01:06:48;100106.53;;;4.73;100.00
54407;BME280;40313;50.308;30.374;2023-12-28T01:09:15;100085.09;;;4.70;100.00
54407;BME280;40313;50.308;30.374;2023-12-28T01:11:41;100104.28;;;4.94;100.00
54407;BME280;40313;50.308;30.374;2023-12-28T01:14:08;100095.34;;;4.73;100.00
54407;BME280;40313;50.308;30.374;2023-12-28T01:16:34;100097.88;;;4.74;100.00
54407;BME280;40313;50.308;30.374;2023-12-28T01:19:01;100095.78;;;4.54;100.00
54407;BME280;40313;50.308;30.374;2023-12-28T01:21:29;100094.88;;;4.57;100.00
54407;BME280;40313;50.308;30.374;2023-12-28T01:23:56;100096.38;;;4.65;100.00
54407;BME280;40313;50.308;30.374;2023-12-28T01:26:22;100100.88;;;4.59;100.00
54407;BME280;40313;50.308;30.374;2023-12-28T01:28:49;100093.88;;;4.62;100.00
54407;BME280;40313;50.308;30.374;2023-12-28T01:31:15;100082.06;;;4.52;100.00
54407;BME280;40313;50.308;30.374;2023-12-28T01:33:42;100085.66;;;4.46;100.00
54407;BME280;40313;50.308;30.374;2023-12-28T01:36:16;100083.16;;;4.43;100.00
54407;BME280;40313;50.308;30.374;2023-12-28T01:38:44;100067.97;;;4.29;100.00
54407;BME280;40313;50.308;30.374;2023-12-28T01:41:11;100073.94;;;4.31;100.00
54407;BME280;40313;50.308;30.374;2023-12-28T01:43:39;100072.38;;;4.26;100.00
54407;BME280;40313;50.308;30.374;2023-12-28T01:46:06;100089.69;;;4.21;100.00
54407;BME280;40313;50.308;30.374;2023-12-28T01:48:33;100099.72;;;4.35;100.00
54407;BME280;40313;50.308;30.374;2023-12-28T01:51:00;100090.38;;;4.29;100.00
54407;BME280;40313;50.308;30.374;2023-12-28T01:53:26;100094.28;;;4.45;100.00
54407;BME280;40313;50.308;30.374;2023-12-28T01:55:55;100093.53;;;4.42;100.00
54407;BME280;40313;50.308;30.374;2023-12-28T01:58:22;100094.13;;;4.53;100.00
54407;BME280;40313;50.308;30.374;2023-12-28T02:00:50;100096.53;;;4.59;100.00
54407;BME280;40313;50.308;30.374;2023-12-28T02:03:16;100094.31;;;4.44;100.00
54407;BME280;40313;50.308;30.374;2023-12-28T02:05:43;100092.16;;;4.61;100.00
54407;BME280;40313;50.308;30.374;2023-12-28T02:08:09;100090.84;;;4.45;100.00
54407;BME280;40313;50.308;30.374;2023-12-28T02:10:38;100101.44;;;4.34;100.00
54407;BME280;40313;50.308;30.374;2023-12-28T02:13:06;100098.19;;;4.24;100.00
54407;BME280;40313;50.308;30.374;2023-12-28T02:15:33;100105.06;;;4.25;100.00
54407;BME280;40313;50.308;30.374;2023-12-28T02:18:02;100103.78;;;4.06;100.00
54407;BME280;40313;50.308;30.374;2023-12-28T02:20:32;100100.78;;;4.26;100.00
54407;BME280;40313;50.308;30.374;2023-12-28T02:23:01;100106.47;;;4.01;100.00
54407;BME280;40313;50.308;30.374;2023-12-28T02:25:29;100112.78;;;4.27;100.00
54407;BME280;40313;50.308;30.374;2023-12-28T02:27:56;100108.94;;;4.06;100.00
54407;BME280;40313;50.308;30.374;2023-12-28T02:30:23;100118.50;;;4.02;100.00
54407;BME280;40313;50.308;30.374;2023-12-28T02:32:58;100128.84;;;4.02;100.00
54407;BME280;40313;50.308;30.374;2023-12-28T02:35:30;100149.28;;;4.11;100.00
54407;BME280;40313;50.308;30.374;2023-12-28T02:38:02;100140.97;;;3.97;100.00
54407;BME280;40313;50.308;30.374;2023-12-28T02:40:36;100139.38;;;3.91;100.00
54407;BME280;40313;50.308;30.374;2023-12-28T02:43:03;100154.81;;;3.94;100.00
54407;BME280;40313;50.308;30.374;2023-12-28T02:45:29;100156.72;;;3.85;100.00
54407;BME280;40313;50.308;30.374;2023-12-28T02:47:56;100151.56;;;3.85;100.00
54407;BME280;40313;50.308;30.374;2023-12-28T02:50:22;100150.97;;;3.72;100.00
54407;BME280;40313;50.308;30.374;2023-12-28T02:52:49;100164.69;;;3.74;100.00
54407;BME280;40313;50.308;30.374;2023-12-28T02:55:15;100166.25;;;3.81;100.00
54407;BME280;40313;50.308;30.374;2023-12-28T02:57:44;100170.69;;;3.74;100.00
54407;BME280;40313;50.308;30.374;2023-12-28T03:00:11;100165.25;;;3.43;100.00
54407;BME280;40313;50.308;30.374;2023-12-28T03:02:38;100159.25;;;3.42;100.00
54407;BME280;40313;50.308;30.374;2023-12-28T03:05:05;100164.03;;;3.62;100.00
54407;BME280;40313;50.308;30.374;2023-12-28T03:07:32;100160.34;;;3.31;100.00
54407;BME280;40313;50.308;30.374;2023-12-28T03:09:59;100157.28;;;3.07;100.00
54407;BME280;40313;50.308;30.374;2023-12-28T03:12:26;100165.28;;;2.93;100.00
54407;BME280;40313;50.308;30.374;2023-12-28T03:14:54;100175.22;;;3.15;100.00
54407;BME280;40313;50.308;30.374;2023-12-28T03:17:21;100173.06;;;2.88;100.00
54407;BME280;40313;50.308;30.374;2023-12-28T03:19:47;100183.31;;;2.93;100.00
54407;BME280;40313;50.308;30.374;2023-12-28T03:22:14;100181.72;;;2.84;100.00
54407;BME280;40313;50.308;30.374;2023-12-28T03:24:40;100183.41;;;2.87;100.00
54407;BME280;40313;50.308;30.374;2023-12-28T03:27:07;100189.53;;;2.80;100.00
54407;BME280;40313;50.308;30.374;2023-12-28T03:29:33;100190.34;;;2.83;100.00
54407;BME280;40313;50.308;30.374;2023-12-28T03:32:01;100188.66;;;2.81;100.00
54407;BME280;40313;50.308;30.374;2023-12-28T03:34:28;100191.09;;;2.88;100.00
54407;BME280;40313;50.308;30.374;2023-12-28T03:36:55;100188.00;;;2.68;100.00
54407;BME280;40313;50.308;30.374;2023-12-28T03:39:22;100176.09;;;2.61;100.00
54407;BME280;40313;50.308;30.374;2023-12-28T03:41:49;100181.03;;;2.74;100.00
54407;BME280;40313;50.308;30.374;2023-12-28T03:44:15;100183.34;;;2.90;100.00
54407;BME280;40313;50.308;30.374;2023-12-28T03:46:42;100178.16;;;2.94;100.00
54407;BME280;40313;50.308;30.374;2023-12-28T03:49:10;100168.69;;;2.95;100.00
54407;BME280;40313;50.308;30.374;2023-12-28T03:51:36;100175.63;;;2.90;100.00
54407;BME280;40313;50.308;30.374;2023-12-28T03:54:03;100172.34;;;2.79;100.00
54407;BME280;40313;50.308;30.374;2023-12-28T03:56:30;100171.38;;;2.87;100.00
54407;BME280;40313;50.308;30.374;2023-12-28T03:58:58;100171.59;;;2.73;100.00
54407;BME280;40313;50.308;30.374;2023-12-28T04:01:24;100155.31;;;2.70;100.00
54407;BME280;40313;50.308;30.374;2023-12-28T04:03:51;100181.09;;;2.68;100.00
54407;BME280;40313;50.308;30.374;2023-12-28T04:06:19;100180.38;;;2.58;100.00
54407;BME280;40313;50.308;30.374;2023-12-28T04:08:45;100187.41;;;2.47;100.00
54407;BME280;40313;50.308;30.374;2023-12-28T04:11:12;100188.38;;;2.40;100.00
54407;BME280;40313;50.308;30.374;2023-12-28T04:13:39;100185.81;;;2.38;100.00
54407;BME280;40313;50.308;30.374;2023-12-28T04:16:05;100179.94;;;2.32;100.00
54407;BME280;40313;50.308;30.374;2023-12-28T04:18:32;100184.84;;;2.47;100.00
54407;BME280;40313;50.308;30.374;2023-12-28T04:20:59;100179.13;;;2.27;100.00
54407;BME280;40313;50.308;30.374;2023-12-28T04:23:27;100183.53;;;2.17;100.00
54407;BME280;40313;50.308;30.374;2023-12-28T04:25:53;100198.88;;;2.26;100.00
54407;BME280;40313;50.308;30.374;2023-12-28T04:28:20;100205.75;;;2.24;100.00
54407;BME280;40313;50.308;30.374;2023-12-28T04:30:46;100198.09;;;2.19;100.00
54407;BME280;40313;50.308;30.374;2023-12-28T04:33:13;100208.28;;;2.29;100.00
54407;BME280;40313;50.308;30.374;2023-12-28T04:35:42;100201.59;;;2.15;100.00
54407;BME280;40313;50.308;30.374;2023-12-28T04:38:09;100215.38;;;2.11;100.00
54407;BME280;40313;50.308;30.374;2023-12-28T04:40:37;100214.44;;;2.17;100.00
54407;BME280;40313;50.308;30.374;2023-12-28T04:43:04;100206.88;;;2.06;100.00
54407;BME280;40313;50.308;30.374;2023-12-28T04:45:30;100210.22;;;2.11;100.00
54407;BME280;40313;50.308;30.374;2023-12-28T04:47:57;100206.88;;;2.03;100.00
54407;BME280;40313;50.308;30.374;2023-12-28T04:50:23;100203.53;;;1.98;100.00
54407;BME280;40313;50.308;30.374;2023-12-28T04:52:50;100224.16;;;1.95;100.00
54407;BME280;40313;50.308;30.374;2023-12-28T04:55:16;100212.97;;;1.97;100.00
54407;BME280;40313;50.308;30.374;2023-12-28T04:57:44;100206.16;;;1.93;100.00
54407;BME280;40313;50.308;30.374;2023-12-28T05:00:11;100220.75;;;1.91;100.00
54407;BME280;40313;50.308;30.374;2023-12-28T05:02:38;100223.34;;;1.89;100.00
54407;BME280;40313;50.308;30.374;2023-12-28T05:05:05;100225.19;;;1.77;100.00
54407;BME280;40313;50.308;30.374;2023-12-28T05:07:34;100213.97;;;1.84;100.00
54407;BME280;40313;50.308;30.374;2023-12-28T05:10:00;100222.72;;;1.69;100.00
54407;BME280;40313;50.308;30.374;2023-12-28T05:12:27;100218.47;;;1.65;100.00
54407;BME280;40313;50.308;30.374;2023-12-28T05:14:55;100219.41;;;1.56;100.00
54407;BME280;40313;50.308;30.374;2023-12-28T05:17:22;100221.09;;;1.60;100.00
54407;BME280;40313;50.308;30.374;2023-12-28T05:19:48;100210.00;;;1.53;100.00
54407;BME280;40313;50.308;30.374;2023-12-28T05:22:15;100206.59;;;1.50;100.00
54407;BME280;40313;50.308;30.374;2023-12-28T05:24:41;100211.75;;;1.48;100.00
54407;BME280;40313;50.308;30.374;2023-12-28T05:27:08;100220.38;;;1.43;100.00
54407;BME280;40313;50.308;30.374;2023-12-28T05:29:34;100224.66;;;1.45;100.00
54407;BME280;40313;50.308;30.374;2023-12-28T05:32:03;100222.94;;;1.47;100.00
54407;BME280;40313;50.308;30.374;2023-12-28T05:34:29;100218.59;;;1.52;100.00
54407;BME280;40313;50.308;30.374;2023-12-28T05:36:56;100221.13;;;1.54;100.00
54407;BME280;40313;50.308;30.374;2023-12-28T05:39:22;100210.94;;;1.46;100.00
54407;BME280;40313;50.308;30.374;2023-12-28T05:41:49;100216.88;;;1.51;100.00
54407;BME280;40313;50.308;30.374;2023-12-28T05:44:16;100221.16;;;1.52;100.00
54407;BME280;40313;50.308;30.374;2023-12-28T05:46:43;100222.03;;;1.53;100.00
54407;BME280;40313;50.308;30.374;2023-12-28T05:49:10;100224.63;;;1.47;100.00
54407;BME280;40313;50.308;30.374;2023-12-28T05:51:38;100222.84;;;1.55;100.00
54407;BME280;40313;50.308;30.374;2023-12-28T05:54:06;100210.88;;;1.52;100.00
54407;BME280;40313;50.308;30.374;2023-12-28T05:56:32;100208.22;;;1.59;100.00
54407;BME280;40313;50.308;30.374;2023-12-28T05:58:59;100200.59;;;1.52;100.00
54407;BME280;40313;50.308;30.374;2023-12-28T06:01:25;100191.19;;;1.50;100.00
54407;BME280;40313;50.308;30.374;2023-12-28T06:03:52;100218.50;;;1.62;100.00
54407;BME280;40313;50.308;30.374;2023-12-28T06:06:20;100212.63;;;1.50;100.00
54407;BME280;40313;50.308;30.374;2023-12-28T06:08:47;100202.19;;;1.63;100.00
54407;BME280;40313;50.308;30.374;2023-12-28T06:11:13;100215.09;;;1.60;100.00
54407;BME280;40313;50.308;30.374;2023-12-28T06:13:40;100222.59;;;1.78;100.00
54407;BME280;40313;50.308;30.374;2023-12-28T06:16:06;100218.19;;;1.91;100.00
54407;BME280;40313;50.308;30.374;2023-12-28T06:18:33;100216.41;;;1.96;100.00
54407;BME280;40313;50.308;30.374;2023-12-28T06:21:00;100218.75;;;2.16;100.00
54407;BME280;40313;50.308;30.374;2023-12-28T06:23:29;100213.47;;;2.25;100.00
54407;BME280;40313;50.308;30.374;2023-12-28T06:25:55;100210.81;;;2.33;100.00
54407;BME280;40313;50.308;30.374;2023-12-28T06:28:22;100217.69;;;2.31;100.00
54407;BME280;40313;50.308;30.374;2023-12-28T06:30:48;100212.47;;;2.37;100.00
54407;BME280;40313;50.308;30.374;2023-12-28T06:33:15;100225.22;;;2.47;100.00
54407;BME280;40313;50.308;30.374;2023-12-28T06:35:41;100225.97;;;2.55;100.00
54407;BME280;40313;50.308;30.374;2023-12-28T06:38:08;100229.31;;;2.62;100.00
54407;BME280;40313;50.308;30.374;2023-12-28T06:40:36;100238.66;;;2.66;100.00
54407;BME280;40313;50.308;30.374;2023-12-28T06:43:03;100236.16;;;2.61;100.00
54407;BME280;40313;50.308;30.374;2023-12-28T06:45:29;100238.78;;;2.59;100.00
54407;BME280;40313;50.308;30.374;2023-12-28T06:47:56;100221.56;;;2.63;100.00
54407;BME280;40313;50.308;30.374;2023-12-28T06:50:22;100230.84;;;2.73;100.00
54407;BME280;40313;50.308;30.374;2023-12-28T06:52:49;100242.88;;;2.73;100.00
54407;BME280;40313;50.308;30.374;2023-12-28T06:55:15;100252.25;;;2.80;100.00
54407;BME280;40313;50.308;30.374;2023-12-28T06:57:43;100262.28;;;2.99;100.00
54407;BME280;40313;50.308;30.374;2023-12-28T07:00:11;100262.06;;;3.11;100.00
54407;BME280;40313;50.308;30.374;2023-12-28T07:02:38;100257.66;;;3.18;100.00
54407;BME280;40313;50.308;30.374;2023-12-28T07:05:05;100259.97;;;3.35;100.00
54407;BME280;40313;50.308;30.374;2023-12-28T07:07:31;100260.53;;;3.52;100.00
54407;BME280;40313;50.308;30.374;2023-12-28T07:09:58;100258.69;;;3.60;100.00
54407;BME280;40313;50.308;30.374;2023-12-28T07:12:24;100266.44;;;3.60;100.00
54407;BME280;40313;50.308;30.374;2023-12-28T07:14:52;100284.81;;;3.90;100.00
54407;BME280;40313;50.308;30.374;2023-12-28T07:17:19;100286.44;;;3.96;100.00
54407;BME280;40313;50.308;30.374;2023-12-28T07:19:45;100295.38;;;3.76;100.00
54407;BME280;40313;50.308;30.374;2023-12-28T07:22:12;100294.19;;;3.96;100.00
54407;BME280;40313;50.308;30.374;2023-12-28T07:24:38;100297.38;;;4.09;100.00
54407;BME280;40313;50.308;30.374;2023-12-28T07:27:05;100296.59;;;4.04;100.00
54407;BME280;40313;50.308;30.374;2023-12-28T07:29:32;100290.44;;;4.11;100.00
54407;BME280;40313;50.308;30.374;2023-12-28T07:31:59;100297.91;;;4.26;100.00
54407;BME280;40313;50.308;30.374;2023-12-28T07:34:26;100304.19;;;4.11;100.00
54407;BME280;40313;50.308;30.374;2023-12-28T07:36:53;100304.84;;;4.23;100.00
54407;BME280;40313;50.308;30.374;2023-12-28T07:39:19;100301.34;;;4.25;100.00
54407;BME280;40313;50.308;30.374;2023-12-28T07:41:46;100288.41;;;4.27;100.00
54407;BME280;40313;50.308;30.374;2023-12-28T07:44:12;100286.66;;;4.29;100.00
54407;BME280;40313;50.308;30.374;2023-12-28T07:46:39;100292.59;;;4.32;100.00
54407;BME280;40313;50.308;30.374;2023-12-28T07:49:07;100287.53;;;4.28;100.00
54407;BME280;40313;50.308;30.374;2023-12-28T07:51:33;100289.22;;;4.30;100.00
54407;BME280;40313;50.308;30.374;2023-12-28T07:54:00;100297.72;;;4.34;100.00
54407;BME280;40313;50.308;30.374;2023-12-28T07:56:26;100298.53;;;4.38;100.00
54407;BME280;40313;50.308;30.374;2023-12-28T07:58:53;100305.28;;;4.45;100.00
54407;BME280;40313;50.308;30.374;2023-12-28T08:01:19;100304.41;;;4.46;100.00
54407;BME280;40313;50.308;30.374;2023-12-28T08:03:46;100308.50;;;4.56;100.00
54407;BME280;40313;50.308;30.374;2023-12-28T08:06:14;100307.69;;;4.53;100.00
54407;BME280;40313;50.308;30.374;2023-12-28T08:08:41;100313.22;;;4.78;100.00
54407;BME280;40313;50.308;30.374;2023-12-28T08:11:07;100311.31;;;4.86;100.00
54407;BME280;40313;50.308;30.374;2023-12-28T08:13:34;100305.09;;;4.95;100.00
54407;BME280;40313;50.308;30.374;2023-12-28T08:16:00;100297.19;;;5.01;100.00
54407;BME280;40313;50.308;30.374;2023-12-28T08:18:28;100292.66;;;5.11;100.00
54407;BME280;40313;50.308;30.374;2023-12-28T08:20:54;100289.19;;;5.12;100.00
54407;BME280;40313;50.308;30.374;2023-12-28T08:23:23;100293.41;;;5.16;100.00
54407;BME280;40313;50.308;30.374;2023-12-28T08:25:49;100292.41;;;5.22;100.00
54407;BME280;40313;50.308;30.374;2023-12-28T08:28:16;100286.16;;;5.30;100.00
54407;BME280;40313;50.308;30.374;2023-12-28T08:30:43;100292.81;;;5.41;100.00
54407;BME280;40313;50.308;30.374;2023-12-28T08:33:10;100290.47;;;5.64;100.00
54407;BME280;40313;50.308;30.374;2023-12-28T08:35:36;100280.78;;;5.72;100.00
54407;BME280;40313;50.308;30.374;2023-12-28T08:38:03;100282.22;;;5.83;100.00
54407;BME280;40313;50.308;30.374;2023-12-28T08:40:33;100278.53;;;5.93;100.00
54407;BME280;40313;50.308;30.374;2023-12-28T08:42:59;100286.25;;;5.95;100.00
54407;BME280;40313;50.308;30.374;2023-12-28T08:45:26;100280.00;;;6.03;100.00
54407;BME280;40313;50.308;30.374;2023-12-28T08:47:53;100280.72;;;6.09;100.00
54407;BME280;40313;50.308;30.374;2023-12-28T08:50:19;100272.78;;;6.15;100.00
54407;BME280;40313;50.308;30.374;2023-12-28T08:52:46;100275.78;;;6.31;100.00
54407;BME280;40313;50.308;30.374;2023-12-28T08:55:12;100260.94;;;6.37;100.00
54407;BME280;40313;50.308;30.374;2023-12-28T08:57:40;100265.09;;;6.42;100.00
54407;BME280;40313;50.308;30.374;2023-12-28T09:00:08;100261.63;;;6.43;100.00
54407;BME280;40313;50.308;30.374;2023-12-28T09:02:34;100243.94;;;6.57;100.00
54407;BME280;40313;50.308;30.374;2023-12-28T09:05:01;100237.91;;;6.56;100.00
54407;BME280;40313;50.308;30.374;2023-12-28T09:07:27;100242.72;;;6.69;100.00
54407;BME280;40313;50.308;30.374;2023-12-28T09:09:54;100237.00;;;6.86;100.00
54407;BME280;40313;50.308;30.374;2023-12-28T09:12:21;100236.00;;;6.90;100.00
54407;BME280;40313;50.308;30.374;2023-12-28T09:14:48;100239.88;;;6.77;100.00
54407;BME280;40313;50.308;30.374;2023-12-28T09:17:18;100243.41;;;6.74;100.00
54407;BME280;40313;50.308;30.374;2023-12-28T09:19:44;100242.84;;;6.92;100.00
54407;BME280;40313;50.308;30.374;2023-12-28T09:22:11;100240.97;;;6.98;100.00
54407;BME280;40313;50.308;30.374;2023-12-28T09:24:37;100233.81;;;7.04;100.00
54407;BME280;40313;50.308;30.374;2023-12-28T09:27:04;100220.75;;;7.07;100.00
54407;BME280;40313;50.308;30.374;2023-12-28T09:29:30;100219.78;;;7.12;100.00
54407;BME280;40313;50.308;30.374;2023-12-28T09:31:59;100231.94;;;7.09;100.00
54407;BME280;40313;50.308;30.374;2023-12-28T09:34:25;100217.50;;;7.28;100.00
54407;BME280;40313;50.308;30.374;2023-12-28T09:36:52;100216.31;;;7.38;100.00
54407;BME280;40313;50.308;30.374;2023-12-28T09:39:18;100212.16;;;7.32;100.00
54407;BME280;40313;50.308;30.374;2023-12-28T09:41:49;100204.47;;;7.29;100.00
54407;BME280;40313;50.308;30.374;2023-12-28T09:44:21;100196.75;;;7.53;100.00
54407;BME280;40313;50.308;30.374;2023-12-28T09:46:50;100191.31;;;7.60;100.00
54407;BME280;40313;50.308;30.374;2023-12-28T09:49:20;100189.53;;;7.61;100.00
54407;BME280;40313;50.308;30.374;2023-12-28T09:51:47;100160.28;;;7.56;100.00
54407;BME280;40313;50.308;30.374;2023-12-28T09:54:14;100177.13;;;7.69;100.00
54407;BME280;40313;50.308;30.374;2023-12-28T09:56:42;100177.81;;;7.74;100.00
54407;BME280;40313;50.308;30.374;2023-12-28T09:59:09;100178.72;;;7.73;100.00
54407;BME280;40313;50.308;30.374;2023-12-28T10:01:37;100177.72;;;7.77;100.00
54407;BME280;40313;50.308;30.374;2023-12-28T10:04:03;100178.56;;;7.78;100.00
54407;BME280;40313;50.308;30.374;2023-12-28T10:06:33;100169.13;;;7.99;100.00
54407;BME280;40313;50.308;30.374;2023-12-28T10:09:00;100159.41;;;8.04;100.00
54407;BME280;40313;50.308;30.374;2023-12-28T10:11:26;100152.16;;;8.12;100.00
54407;BME280;40313;50.308;30.374;2023-12-28T10:13:53;100147.91;;;8.34;100.00
54407;BME280;40313;50.308;30.374;2023-12-28T10:16:20;100136.06;;;8.48;100.00
54407;BME280;40313;50.308;30.374;2023-12-28T10:18:46;100142.22;;;8.47;100.00
54407;BME280;40313;50.308;30.374;2023-12-28T10:21:13;100145.22;;;8.59;100.00
54407;BME280;40313;50.308;30.374;2023-12-28T10:23:41;100136.22;;;8.68;100.00
54407;BME280;40313;50.308;30.374;2023-12-28T10:26:07;100126.34;;;8.54;100.00
54407;BME280;40313;50.308;30.374;2023-12-28T10:28:35;100116.38;;;8.65;100.00
54407;BME280;40313;50.308;30.374;2023-12-28T10:31:02;100122.69;;;8.80;100.00
54407;BME280;40313;50.308;30.374;2023-12-28T10:33:34;100116.38;;;8.86;100.00
54407;BME280;40313;50.308;30.374;2023-12-28T10:36:04;100112.78;;;8.68;100.00
54407;BME280;40313;50.308;30.374;2023-12-28T10:38:34;100103.50;;;8.82;100.00
54407;BME280;40313;50.308;30.374;2023-12-28T10:41:04;100102.19;;;8.93;100.00
54407;BME280;40313;50.308;30.374;2023-12-28T10:43:38;100091.16;;;8.88;100.00
54407;BME280;40313;50.308;30.374;2023-12-28T10:46:09;100091.78;;;8.93;100.00
54407;BME280;40313;50.308;30.374;2023-12-28T10:48:38;100092.06;;;8.66;100.00
54407;BME280;40313;50.308;30.374;2023-12-28T10:51:10;100085.41;;;8.59;100.00
54407;BME280;40313;50.308;30.374;2023-12-28T10:53:38;100072.03;;;8.68;100.00
54407;BME280;40313;50.308;30.374;2023-12-28T10:56:19;100074.63;;;8.68;100.00
54407;BME280;40313;50.308;30.374;2023-12-28T10:58:49;100080.25;;;8.57;100.00
54407;BME280;40313;50.308;30.374;2023-12-28T11:01:21;100067.31;;;8.56;100.00
54407;BME280;40313;50.308;30.374;2023-12-28T11:03:52;100080.84;;;8.64;100.00
54407;BME280;40313;50.308;30.374;2023-12-28T11:06:25;100084.25;;;8.66;100.00
54407;BME280;40313;50.308;30.374;2023-12-28T11:08:53;100079.06;;;8.22;100.00
54407;BME280;40313;50.308;30.374;2023-12-28T11:11:23;100072.91;;;8.46;100.00
54407;BME280;40313;50.308;30.374;2023-12-28T11:13:50;100054.56;;;8.50;100.00
54407;BME280;40313;50.308;30.374;2023-12-28T11:16:18;100058.06;;;8.48;100.00
54407;BME280;40313;50.308;30.374;2023-12-28T11:18:45;100045.06;;;8.48;100.00
54407;BME280;40313;50.308;30.374;2023-12-28T11:21:13;100041.94;;;8.40;100.00
54407;BME280;40313;50.308;30.374;2023-12-28T11:23:40;100041.44;;;8.08;100.00
54407;BME280;40313;50.308;30.374;2023-12-28T11:26:15;100015.59;;;8.05;100.00
54407;BME280;40313;50.308;30.374;2023-12-28T11:28:44;100023.66;;;7.99;100.00
54407;BME280;40313;50.308;30.374;2023-12-28T11:31:10;100019.22;;;8.01;100.00
54407;BME280;40313;50.308;30.374;2023-12-28T11:33:43;100017.91;;;7.91;100.00
54407;BME280;40313;50.308;30.374;2023-12-28T11:36:10;100009.63;;;7.81;100.00
54407;BME280;40313;50.308;30.374;2023-12-28T11:38:38;100009.22;;;7.92;100.00
54407;BME280;40313;50.308;30.374;2023-12-28T11:41:06;100013.09;;;7.58;100.00
54407;BME280;40313;50.308;30.374;2023-12-28T11:43:34;100009.56;;;7.83;100.00
54407;BME280;40313;50.308;30.374;2023-12-28T11:46:04;100000.19;;;7.33;100.00
54407;BME280;40313;50.308;30.374;2023-12-28T11:48:31;99985.94;;;7.21;100.00
54407;BME280;40313;50.308;30.374;2023-12-28T11:50:59;99993.00;;;7.16;100.00
54407;BME280;40313;50.308;30.374;2023-12-28T11:53:26;99983.78;;;7.08;100.00
54407;BME280;40313;50.308;30.374;2023-12-28T11:55:59;99986.53;;;7.04;100.00
54407;BME280;40313;50.308;30.374;2023-12-28T11:58:28;99985.34;;;6.89;100.00
54407;BME280;40313;50.308;30.374;2023-12-28T12:00:55;99967.97;;;6.67;100.00
54407;BME280;40313;50.308;30.374;2023-12-28T12:03:24;99982.41;;;6.74;100.00
54407;BME280;40313;50.308;30.374;2023-12-28T12:05:51;99982.59;;;6.68;100.00
54407;BME280;40313;50.308;30.374;2023-12-28T12:08:19;99977.00;;;6.55;100.00
54407;BME280;40313;50.308;30.374;2023-12-28T12:10:46;99977.94;;;6.53;100.00
54407;BME280;40313;50.308;30.374;2023-12-28T12:13:13;99972.25;;;6.43;100.00
54407;BME280;40313;50.308;30.374;2023-12-28T12:15:41;99982.91;;;6.34;100.00
54407;BME280;40313;50.308;30.374;2023-12-28T12:18:09;99982.34;;;6.24;100.00
54407;BME280;40313;50.308;30.374;2023-12-28T12:20:37;99984.25;;;6.19;100.00
54407;BME280;40313;50.308;30.374;2023-12-28T12:23:04;99980.75;;;6.20;100.00
54407;BME280;40313;50.308;30.374;2023-12-28T12:25:31;99982.00;;;6.08;100.00
54407;BME280;40313;50.308;30.374;2023-12-28T12:27:57;99975.13;;;6.07;100.00
54407;BME280;40313;50.308;30.374;2023-12-28T12:30:24;99966.72;;;6.00;100.00
54407;BME280;40313;50.308;30.374;2023-12-28T12:32:50;99958.38;;;5.91;100.00
54407;BME280;40313;50.308;30.374;2023-12-28T12:35:17;99959.47;;;5.83;100.00
54407;BME280;40313;50.308;30.374;2023-12-28T12:37:48;99960.31;;;5.84;100.00
54407;BME280;40313;50.308;30.374;2023-12-28T12:40:16;99956.00;;;5.83;100.00